Time;durP1;ratioP1;P1;durP2;ratioP2;P2;SDS_P1;SDS_P2;PMS_P1;PMS_P2;Temp;Humidity;BMP_temperature;BMP_pressure;BME280_temperature;BME280_humidity;BME280_pressure;Samples;Min_cycle;Max_cycle;Signal;HPM_P1;HPM_P2
2021/11/28 00:02:27;;;;;;;22.05;18.75;;;7.70;99.90;;;;;;5071529;28;20677;-64
2021/11/28 00:04:56;;;;;;;19.40;16.42;;;7.70;99.90;;;;;;5071846;28;20266;-63
2021/11/28 00:07:32;;;;;;;18.13;16.20;;;7.70;99.90;;;;;;5071514;28;20234;-63
2021/11/28 00:10:06;;;;;;;19.25;16.90;;;7.60;99.90;;;;;;5070567;28;20215;-63
2021/11/28 00:12:42;;;;;;;21.10;16.85;;;7.60;99.90;;;;;;5071238;28;20220;-63
2021/11/28 00:15:13;;;;;;;24.67;18.83;;;7.60;99.90;;;;;;5059226;28;20246;-63
2021/11/28 00:17:40;;;;;;;24.63;18.27;;;7.60;99.90;;;;;;5070208;28;20662;-64
2021/11/28 00:20:11;;;;;;;18.13;15.35;;;7.60;99.90;;;;;;5069439;28;20232;-63
2021/11/28 00:22:39;;;;;;;21.45;17.08;;;7.50;99.90;;;;;;5065658;28;20216;-63
2021/11/28 00:25:09;;;;;;;19.00;15.43;;;7.60;99.90;;;;;;5070070;28;20220;-63
2021/11/28 00:27:37;;;;;;;18.77;15.65;;;7.50;99.90;;;;;;5069773;28;20224;-63
2021/11/28 00:30:05;;;;;;;17.00;14.02;;;7.50;99.90;;;;;;5061110;28;20224;-63
2021/11/28 00:32:33;;;;;;;16.20;13.85;;;7.50;99.90;;;;;;5069477;28;20289;-64
2021/11/28 00:35:00;;;;;;;16.48;13.43;;;7.50;99.90;;;;;;5069588;28;20981;-64
2021/11/28 00:37:27;;;;;;;19.08;16.33;;;7.40;99.90;;;;;;5072665;28;20216;-62
2021/11/28 00:39:54;;;;;;;17.77;13.93;;;7.50;99.90;;;;;;5073545;28;20227;-64
2021/11/28 00:42:21;;;;;;;16.23;14.45;;;7.40;99.90;;;;;;5072904;28;20624;-63
2021/11/28 00:44:50;;;;;;;18.10;13.98;;;7.50;99.90;;;;;;5072166;28;20342;-62
2021/11/28 00:47:18;;;;;;;16.92;14.82;;;7.50;99.90;;;;;;5073733;28;20596;-63
2021/11/28 00:50:01;;;;;;;16.33;14.63;;;7.50;99.90;;;;;;5074622;28;20221;-63
2021/11/28 00:52:28;;;;;;;15.50;13.90;;;7.40;99.90;;;;;;5073893;28;20230;-63
2021/11/28 00:54:55;;;;;;;15.38;13.55;;;7.40;99.90;;;;;;5074743;28;20678;-63
2021/11/28 00:57:23;;;;;;;14.60;12.65;;;7.40;99.90;;;;;;5074271;28;20223;-63
2021/11/28 00:59:50;;;;;;;14.02;12.60;;;7.40;99.90;;;;;;5074400;28;20235;-63
2021/11/28 01:02:18;;;;;;;16.00;13.70;;;7.40;99.90;;;;;;5073897;28;20228;-63
2021/11/28 01:04:45;;;;;;;15.52;13.15;;;7.30;99.90;;;;;;5074697;28;20234;-62
2021/11/28 01:07:14;;;;;;;13.25;11.73;;;7.40;99.90;;;;;;5074620;28;20823;-63
2021/11/28 01:09:42;;;;;;;14.68;11.77;;;7.40;99.90;;;;;;5074069;28;20240;-63
2021/11/28 01:12:10;;;;;;;13.95;11.60;;;7.40;99.90;;;;;;5074473;28;20674;-63
2021/11/28 01:14:38;;;;;;;13.35;12.00;;;7.40;99.90;;;;;;5066732;28;20686;-63
2021/11/28 01:17:09;;;;;;;14.02;11.75;;;7.40;99.90;;;;;;5074711;28;20659;-63
2021/11/28 01:19:36;;;;;;;13.52;11.95;;;7.50;99.90;;;;;;5073566;28;20570;-63
2021/11/28 01:22:06;;;;;;;14.30;12.13;;;7.50;99.90;;;;;;5074214;28;20224;-63
2021/11/28 01:24:35;;;;;;;11.77;10.57;;;7.50;99.90;;;;;;5073566;28;20224;-63
2021/11/28 01:27:02;;;;;;;11.35;10.10;;;7.50;99.90;;;;;;5078893;28;20235;-63
2021/11/28 01:29:29;;;;;;;13.05;10.57;;;7.50;99.90;;;;;;5078877;28;20228;-63
2021/11/28 01:31:58;;;;;;;12.95;9.77;;;7.50;99.90;;;;;;5074487;28;20685;-62
2021/11/28 01:34:25;;;;;;;12.82;11.00;;;7.50;99.90;;;;;;5073231;28;20232;-63
2021/11/28 01:36:53;;;;;;;12.73;11.40;;;7.60;99.90;;;;;;5072585;28;20269;-63
2021/11/28 01:39:20;;;;;;;11.25;10.15;;;7.60;99.90;;;;;;5073805;28;20666;-64
2021/11/28 01:41:48;;;;;;;10.27;9.20;;;7.60;99.90;;;;;;5074052;28;20223;-63
2021/11/28 01:44:16;;;;;;;12.13;10.93;;;7.60;99.90;;;;;;5073723;28;20243;-63
2021/11/28 01:46:43;;;;;;;13.57;12.10;;;7.60;99.90;;;;;;5072566;28;20227;-63
2021/11/28 01:49:11;;;;;;;11.63;10.48;;;7.50;99.90;;;;;;5073661;28;20228;-63
2021/11/28 01:51:38;;;;;;;14.48;10.50;;;7.50;99.90;;;;;;5073170;28;20227;-63
2021/11/28 01:54:12;;;;;;;14.35;11.10;;;7.50;99.90;;;;;;5073628;28;20678;-63
2021/11/28 01:56:40;;;;;;;12.35;11.25;;;7.50;99.90;;;;;;5073290;28;20317;-63
2021/11/28 01:59:09;;;;;;;20.00;16.15;;;7.50;99.90;;;;;;5073527;28;20562;-63
2021/11/28 02:01:36;;;;;;;18.42;15.63;;;7.50;99.90;;;;;;5066675;28;20236;-63
2021/11/28 02:04:04;;;;;;;33.75;26.55;;;7.50;99.90;;;;;;5073443;28;20265;-63
2021/11/28 02:06:31;;;;;;;22.17;18.45;;;7.40;99.90;;;;;;5072497;28;20224;-63
2021/11/28 02:08:59;;;;;;;14.57;13.02;;;7.50;99.90;;;;;;5073455;28;20234;-63
2021/11/28 02:11:26;;;;;;;11.10;10.02;;;7.50;99.90;;;;;;5072933;28;20255;-63
2021/11/28 02:13:54;;;;;;;12.35;10.23;;;7.50;99.90;;;;;;5069539;28;20688;-63
2021/11/28 02:16:22;;;;;;;11.52;10.32;;;7.60;99.90;;;;;;5073119;28;20234;-63
2021/11/28 02:18:50;;;;;;;10.98;9.88;;;7.60;99.90;;;;;;5073165;28;20992;-63
2021/11/28 02:21:19;;;;;;;11.40;9.52;;;7.60;99.90;;;;;;5073085;28;20228;-63
2021/11/28 02:23:46;;;;;;;11.40;9.07;;;7.60;99.90;;;;;;5072878;28;20227;-63
2021/11/28 02:26:15;;;;;;;11.32;10.25;;;7.60;99.90;;;;;;5073002;28;20293;-63
2021/11/28 02:28:44;;;;;;;11.13;10.02;;;7.60;99.90;;;;;;5077453;28;20216;-64
2021/11/28 02:31:12;;;;;;;11.23;10.10;;;7.60;99.90;;;;;;5066162;28;20562;-64
2021/11/28 02:33:39;;;;;;;11.20;10.10;;;7.60;99.90;;;;;;5072321;28;20239;-64
2021/11/28 02:36:11;;;;;;;10.65;9.63;;;7.60;99.90;;;;;;5072797;28;20224;-64
2021/11/28 02:38:39;;;;;;;11.45;10.35;;;7.60;99.90;;;;;;5072473;28;20231;-63
2021/11/28 02:41:06;;;;;;;11.13;9.98;;;7.60;99.90;;;;;;5072557;28;20232;-63
2021/11/28 02:43:33;;;;;;;11.98;10.75;;;7.60;99.90;;;;;;5072286;28;20232;-63
2021/11/28 02:46:02;;;;;;;9.75;8.85;;;7.60;99.90;;;;;;5072631;28;20231;-62
2021/11/28 02:48:30;;;;;;;12.07;10.50;;;7.60;99.90;;;;;;5071715;28;20220;-63
2021/11/28 02:51:02;;;;;;;10.68;9.57;;;7.60;99.90;;;;;;5072433;28;20224;-63
2021/11/28 02:53:29;;;;;;;10.75;9.65;;;7.60;99.90;;;;;;5072320;28;20234;-63
2021/11/28 02:56:02;;;;;;;11.43;10.23;;;7.60;99.90;;;;;;5072779;28;20227;-63
2021/11/28 02:58:30;;;;;;;10.48;9.48;;;7.60;99.90;;;;;;5072036;28;20230;-63
2021/11/28 03:01:01;;;;;;;11.73;10.55;;;7.70;99.90;;;;;;5072489;28;20608;-63
2021/11/28 03:03:28;;;;;;;10.95;9.85;;;7.70;99.90;;;;;;5072143;28;20227;-63
2021/11/28 03:05:55;;;;;;;11.30;9.75;;;7.70;99.90;;;;;;5072644;28;20535;-63
2021/11/28 03:08:22;;;;;;;11.43;10.43;;;7.60;99.90;;;;;;5072520;28;20220;-63
2021/11/28 03:10:51;;;;;;;11.18;9.98;;;7.70;99.90;;;;;;5072222;28;20224;-63
2021/11/28 03:13:22;;;;;;;12.00;10.70;;;7.70;99.90;;;;;;5067504;28;20749;-65
2021/11/28 03:15:55;;;;;;;13.05;10.60;;;7.70;99.90;;;;;;5075787;28;20223;-63
2021/11/28 03:18:24;;;;;;;10.38;9.38;;;7.70;99.90;;;;;;5075762;28;20224;-63
2021/11/28 03:20:52;;;;;;;10.80;9.57;;;7.70;99.90;;;;;;5072070;28;20234;-63
2021/11/28 03:23:22;;;;;;;10.75;9.75;;;7.70;99.90;;;;;;5072247;28;20289;-63
2021/11/28 03:25:49;;;;;;;11.25;9.75;;;7.70;99.90;;;;;;5071676;28;21234;-63
2021/11/28 03:28:18;;;;;;;10.77;9.70;;;7.80;99.90;;;;;;5072099;28;20228;-64
2021/11/28 03:30:49;;;;;;;10.23;9.27;;;7.80;99.90;;;;;;5064162;28;20228;-63
2021/11/28 03:33:16;;;;;;;10.18;9.02;;;7.80;99.90;;;;;;5072091;28;20243;-63
2021/11/28 03:35:48;;;;;;;11.00;9.88;;;7.80;99.90;;;;;;5071429;28;20289;-63
2021/11/28 03:38:15;;;;;;;11.75;9.35;;;7.80;99.90;;;;;;5071875;28;20728;-63
2021/11/28 03:40:42;;;;;;;10.68;9.57;;;7.80;99.90;;;;;;5071777;28;20285;-63
2021/11/28 03:43:09;;;;;;;10.80;9.70;;;7.70;99.90;;;;;;5072049;28;20285;-63
2021/11/28 03:45:38;;;;;;;10.95;9.85;;;7.60;99.90;;;;;;5071759;28;20224;-63
2021/11/28 03:48:07;;;;;;;11.70;9.88;;;7.70;99.90;;;;;;5072171;28;20670;-63
2021/11/28 03:50:34;;;;;;;10.20;9.30;;;7.60;99.90;;;;;;5071457;28;20228;-64
2021/11/28 03:53:01;;;;;;;10.70;9.15;;;7.60;99.90;;;;;;5071978;28;20623;-64
2021/11/28 03:55:28;;;;;;;9.25;8.35;;;7.60;99.90;;;;;;5072148;28;20510;-63
2021/11/28 03:57:55;;;;;;;9.88;8.93;;;7.60;99.90;;;;;;5071730;28;20220;-63
2021/11/28 04:00:22;;;;;;;9.70;8.50;;;7.60;99.90;;;;;;5071561;28;20228;-63
2021/11/28 04:02:49;;;;;;;11.05;9.73;;;7.60;99.90;;;;;;5071629;28;20234;-63
2021/11/28 04:05:20;;;;;;;10.73;9.63;;;7.60;99.90;;;;;;5071841;28;20573;-62
2021/11/28 04:07:47;;;;;;;15.20;9.50;;;7.60;99.90;;;;;;5071619;28;20266;-63
2021/11/28 04:10:15;;;;;;;10.68;8.77;;;7.50;99.90;;;;;;5072815;28;20223;-63
2021/11/28 04:12:42;;;;;;;10.93;8.23;;;7.50;99.90;;;;;;5073657;28;20230;-63
2021/11/28 04:15:10;;;;;;;10.95;9.85;;;7.50;99.90;;;;;;5071948;28;20601;-63
2021/11/28 04:17:37;;;;;;;11.35;9.07;;;7.40;99.90;;;;;;5075386;28;20224;-63
2021/11/28 04:20:05;;;;;;;8.98;8.13;;;7.40;99.90;;;;;;5075353;28;20257;-64
2021/11/28 04:22:34;;;;;;;10.90;9.90;;;7.40;99.90;;;;;;5075473;28;20224;-63
2021/11/28 04:25:01;;;;;;;11.23;9.60;;;7.40;99.90;;;;;;5074996;28;20227;-63
2021/11/28 04:27:28;;;;;;;12.45;9.50;;;7.40;99.90;;;;;;5077710;28;20227;-62
2021/11/28 04:29:55;;;;;;;11.27;10.13;;;7.30;99.90;;;;;;5067615;28;20235;-63
2021/11/28 04:32:22;;;;;;;11.10;10.00;;;7.40;99.90;;;;;;5075527;28;20329;-63
2021/11/28 04:34:51;;;;;;;10.20;9.20;;;7.40;99.90;;;;;;5074250;28;20289;-62
2021/11/28 04:37:18;;;;;;;9.95;8.65;;;7.40;99.90;;;;;;5075181;28;20238;-63
2021/11/28 04:39:47;;;;;;;10.75;9.65;;;7.40;99.90;;;;;;5074275;28;20231;-64
2021/11/28 04:42:14;;;;;;;10.80;9.70;;;7.30;99.90;;;;;;5074637;28;20255;-63
2021/11/28 04:44:43;;;;;;;12.32;9.38;;;7.30;99.90;;;;;;5074504;28;20699;-63
2021/11/28 04:47:10;;;;;;;11.13;10.02;;;7.30;99.90;;;;;;5075326;28;20591;-63
2021/11/28 04:49:37;;;;;;;11.52;9.95;;;7.30;99.90;;;;;;5074719;28;20469;-63
2021/11/28 04:52:04;;;;;;;11.18;10.27;;;7.30;99.90;;;;;;5077708;28;20944;-63
2021/11/28 04:54:31;;;;;;;10.02;9.02;;;7.20;99.90;;;;;;5074750;28;20781;-63
2021/11/28 04:56:59;;;;;;;11.32;9.95;;;7.20;99.90;;;;;;5073963;28;20224;-62
2021/11/28 04:59:26;;;;;;;12.00;10.30;;;7.10;99.90;;;;;;5067154;28;20236;-63
2021/11/28 05:01:54;;;;;;;10.80;9.15;;;7.10;99.90;;;;;;5067443;28;20231;-62
2021/11/28 05:04:21;;;;;;;10.45;9.43;;;7.10;99.90;;;;;;5074534;28;20235;-62
2021/11/28 05:06:48;;;;;;;10.38;9.38;;;7.10;99.90;;;;;;5074001;28;20239;-62
2021/11/28 05:09:15;;;;;;;9.85;8.95;;;7.10;99.90;;;;;;5074662;28;20238;-62
2021/11/28 05:11:45;;;;;;;10.95;9.15;;;7.10;99.90;;;;;;5073712;28;20747;-63
2021/11/28 05:14:19;;;;;;;10.23;9.10;;;7.00;99.90;;;;;;5069044;28;20240;-63
2021/11/28 05:16:46;;;;;;;10.25;9.10;;;7.00;99.90;;;;;;5074113;28;20346;-63
2021/11/28 05:19:13;;;;;;;11.40;10.30;;;7.00;99.90;;;;;;5074502;28;20563;-62
2021/11/28 05:21:41;;;;;;;9.25;8.35;;;6.90;99.90;;;;;;5073510;28;20228;-63
2021/11/28 05:24:13;;;;;;;10.98;9.70;;;6.90;99.90;;;;;;5073814;28;20234;-64
2021/11/28 05:26:40;;;;;;;10.90;9.80;;;6.90;99.90;;;;;;5076799;28;20307;-63
2021/11/28 05:29:08;;;;;;;11.90;8.93;;;6.80;99.90;;;;;;5072467;28;20232;-63
2021/11/28 05:31:36;;;;;;;9.52;8.52;;;6.80;99.90;;;;;;5074153;28;20238;-63
2021/11/28 05:34:03;;;;;;;10.35;8.90;;;6.80;99.90;;;;;;5073407;28;20609;-63
2021/11/28 05:36:30;;;;;;;9.35;8.45;;;6.80;99.90;;;;;;5073713;28;20232;-63
2021/11/28 05:38:57;;;;;;;11.88;10.20;;;6.80;99.90;;;;;;5073717;28;20228;-63
2021/11/28 05:41:24;;;;;;;12.73;11.05;;;6.80;99.90;;;;;;5073312;28;20319;-63
2021/11/28 05:43:51;;;;;;;11.07;9.70;;;6.60;99.90;;;;;;5073184;28;20220;-63
2021/11/28 05:46:19;;;;;;;10.10;9.10;;;6.60;99.90;;;;;;5073607;28;20220;-63
2021/11/28 05:48:47;;;;;;;10.38;9.27;;;6.60;99.90;;;;;;5073207;28;20280;-63
2021/11/28 05:51:14;;;;;;;10.85;9.77;;;6.60;99.90;;;;;;5072234;28;20227;-63
2021/11/28 05:53:41;;;;;;;15.95;11.07;;;6.50;99.90;;;;;;5073709;28;20224;-63
2021/11/28 05:56:08;;;;;;;11.95;9.43;;;6.50;99.90;;;;;;5073159;28;20220;-63
2021/11/28 05:58:35;;;;;;;10.52;9.52;;;6.50;99.90;;;;;;5073909;28;20228;-63
2021/11/28 06:01:02;;;;;;;13.18;9.73;;;6.50;99.90;;;;;;5072696;28;20232;-63
2021/11/28 06:03:29;;;;;;;10.88;9.60;;;6.50;99.90;;;;;;5073645;28;20293;-63
2021/11/28 06:05:57;;;;;;;11.52;10.32;;;6.50;99.90;;;;;;5060063;28;20666;-63
2021/11/28 06:08:24;;;;;;;12.48;10.60;;;6.50;99.90;;;;;;5064943;28;20220;-63
2021/11/28 06:10:51;;;;;;;11.00;9.75;;;6.40;99.90;;;;;;5073054;28;20228;-63
2021/11/28 06:13:20;;;;;;;10.55;9.45;;;6.40;99.90;;;;;;5067772;28;20228;-63
2021/11/28 06:15:47;;;;;;;10.07;8.98;;;6.40;99.90;;;;;;5072898;28;20235;-63
2021/11/28 06:18:14;;;;;;;11.18;9.93;;;6.40;99.90;;;;;;5073272;28;20693;-63
2021/11/28 06:20:41;;;;;;;10.30;9.30;;;6.30;99.90;;;;;;5073298;28;20574;-63
2021/11/28 06:23:09;;;;;;;11.25;10.15;;;6.30;99.90;;;;;;5072558;28;20242;-63
2021/11/28 06:25:36;;;;;;;11.25;10.05;;;6.30;99.90;;;;;;5073384;28;20227;-63
2021/11/28 06:28:03;;;;;;;10.95;9.85;;;6.20;99.90;;;;;;5072566;28;20216;-63
2021/11/28 06:30:31;;;;;;;10.57;9.57;;;6.20;99.90;;;;;;5069889;28;20224;-63
2021/11/28 06:32:58;;;;;;;11.35;10.20;;;6.20;99.90;;;;;;5071929;28;20220;-63
2021/11/28 06:35:25;;;;;;;13.05;10.00;;;6.20;99.90;;;;;;5072798;28;20227;-64
2021/11/28 06:37:54;;;;;;;10.98;9.80;;;6.20;99.90;;;;;;5072355;28;20662;-63
2021/11/28 06:40:22;;;;;;;12.52;11.18;;;6.10;99.90;;;;;;5073141;28;20235;-63
2021/11/28 06:42:49;;;;;;;12.27;10.68;;;6.10;99.90;;;;;;5072465;28;20682;-63
2021/11/28 06:45:16;;;;;;;12.07;10.88;;;6.00;99.90;;;;;;5072989;28;20261;-63
2021/11/28 06:47:44;;;;;;;11.85;9.07;;;6.00;99.90;;;;;;5072807;28;20227;-64
2021/11/28 06:50:11;;;;;;;12.05;10.45;;;5.90;99.90;;;;;;5070822;28;20601;-63
2021/11/28 06:52:39;;;;;;;11.18;9.40;;;5.90;99.90;;;;;;5071288;28;20223;-64
2021/11/28 06:55:07;;;;;;;12.95;10.80;;;5.90;99.90;;;;;;5072477;28;20243;-64
2021/11/28 06:57:35;;;;;;;10.93;9.82;;;5.90;99.90;;;;;;5072238;28;20223;-63
2021/11/28 07:00:03;;;;;;;10.32;9.05;;;6.00;99.90;;;;;;5072109;28;20227;-64
2021/11/28 07:02:30;;;;;;;13.57;11.02;;;6.00;99.90;;;;;;5072637;28;20228;-63
2021/11/28 07:04:58;;;;;;;21.95;17.90;;;5.90;99.90;;;;;;5072042;28;20681;-64
2021/11/28 07:07:25;;;;;;;20.13;16.52;;;5.90;99.90;;;;;;5072376;28;20227;-63
2021/11/28 07:09:53;;;;;;;14.00;11.73;;;5.90;99.90;;;;;;5071432;28;20262;-64
2021/11/28 07:12:20;;;;;;;12.98;11.07;;;5.90;99.90;;;;;;5071658;28;20686;-64
2021/11/28 07:14:50;;;;;;;14.05;11.30;;;5.90;99.90;;;;;;5064551;28;20224;-64
2021/11/28 07:17:17;;;;;;;10.52;9.52;;;5.90;99.90;;;;;;5071288;28;20211;-64
2021/11/28 07:19:44;;;;;;;12.98;10.40;;;5.80;99.90;;;;;;5071225;28;20231;-64
2021/11/28 07:22:11;;;;;;;11.18;10.18;;;5.80;99.90;;;;;;5071053;28;20307;-64
2021/11/28 07:24:38;;;;;;;11.65;10.38;;;5.80;99.90;;;;;;5072330;28;20212;-64
2021/11/28 07:27:05;;;;;;;11.05;9.90;;;5.80;99.90;;;;;;5058167;28;20322;-63
2021/11/28 07:29:32;;;;;;;10.65;9.27;;;5.80;99.90;;;;;;5072323;28;20220;-63
2021/11/28 07:32:01;;;;;;;12.60;10.15;;;5.70;99.90;;;;;;5071984;28;20228;-64
2021/11/28 07:34:28;;;;;;;10.90;9.90;;;5.80;99.90;;;;;;5071253;28;20224;-64
2021/11/28 07:36:55;;;;;;;11.18;9.73;;;5.80;99.90;;;;;;5069401;28;20243;-64
2021/11/28 07:39:22;;;;;;;17.38;10.63;;;5.80;99.90;;;;;;5072310;28;20686;-64
2021/11/28 07:41:50;;;;;;;11.43;10.18;;;5.80;99.90;;;;;;5072251;28;20224;-63
2021/11/28 07:44:17;;;;;;;10.93;9.35;;;5.70;99.90;;;;;;5072666;28;20219;-64
2021/11/28 07:46:44;;;;;;;11.07;8.82;;;5.80;99.90;;;;;;5076303;28;20224;-63
2021/11/28 07:49:12;;;;;;;11.48;10.18;;;5.80;99.90;;;;;;5075327;28;20253;-63
2021/11/28 07:51:40;;;;;;;11.77;9.57;;;5.80;99.90;;;;;;5076143;28;20250;-63
2021/11/28 07:54:07;;;;;;;10.50;9.05;;;5.80;99.90;;;;;;5075405;28;20281;-64
2021/11/28 07:56:34;;;;;;;12.82;9.73;;;5.80;99.90;;;;;;5076193;28;20629;-64
2021/11/28 07:59:01;;;;;;;10.23;9.18;;;5.90;99.90;;;;;;5075830;28;20223;-64
2021/11/28 08:01:28;;;;;;;10.07;9.07;;;5.90;99.90;;;;;;5075895;28;20216;-63
2021/11/28 08:03:55;;;;;;;14.98;12.13;;;6.00;99.90;;;;;;5076029;28;20220;-63
2021/11/28 08:06:23;;;;;;;11.70;10.27;;;5.90;99.90;;;;;;5075632;28;20234;-63
2021/11/28 08:08:50;;;;;;;12.02;10.80;;;5.90;99.90;;;;;;5076020;28;20224;-63
2021/11/28 08:11:17;;;;;;;11.38;9.50;;;6.00;99.90;;;;;;5074871;28;20242;-63
2021/11/28 08:13:44;;;;;;;12.63;9.40;;;5.90;99.90;;;;;;5065619;28;20234;-64
2021/11/28 08:16:11;;;;;;;12.00;9.63;;;6.00;99.90;;;;;;5074938;28;20227;-64
2021/11/28 08:18:39;;;;;;;11.45;8.80;;;5.90;99.90;;;;;;5075337;28;20216;-64
2021/11/28 08:21:06;;;;;;;10.50;9.43;;;6.00;99.90;;;;;;5074922;28;20226;-64
2021/11/28 08:23:34;;;;;;;9.60;8.70;;;6.00;99.90;;;;;;5075714;28;20216;-64
2021/11/28 08:26:01;;;;;;;11.23;10.10;;;6.00;99.90;;;;;;5061931;28;20216;-64
2021/11/28 08:28:28;;;;;;;13.60;10.20;;;6.00;99.90;;;;;;5076421;28;20227;-64
2021/11/28 08:30:55;;;;;;;12.30;9.70;;;6.00;99.90;;;;;;5075337;28;20228;-64
2021/11/28 08:33:22;;;;;;;10.38;9.30;;;6.00;99.90;;;;;;5074862;28;20227;-63
2021/11/28 08:35:49;;;;;;;10.70;9.55;;;6.10;99.90;;;;;;5070312;28;20266;-63
2021/11/28 08:38:16;;;;;;;10.93;9.85;;;6.10;99.90;;;;;;5074754;28;20227;-63
2021/11/28 08:40:45;;;;;;;11.30;10.05;;;6.10;99.90;;;;;;5075523;28;20644;-63
2021/11/28 08:43:12;;;;;;;11.75;9.40;;;6.10;99.90;;;;;;5074736;28;20311;-64
2021/11/28 08:45:40;;;;;;;11.65;10.43;;;6.10;99.90;;;;;;5075227;28;20593;-63
2021/11/28 08:48:07;;;;;;;11.73;10.55;;;6.20;99.90;;;;;;5074810;28;20258;-64
2021/11/28 08:50:34;;;;;;;9.45;8.32;;;6.20;99.90;;;;;;5075307;28;20596;-64
2021/11/28 08:53:04;;;;;;;9.10;8.20;;;6.20;99.90;;;;;;5074480;28;20235;-63
2021/11/28 08:55:33;;;;;;;11.82;10.60;;;6.20;99.90;;;;;;5074915;28;20223;-63
2021/11/28 08:58:01;;;;;;;11.00;9.32;;;6.20;99.90;;;;;;5074840;28;20216;-63
2021/11/28 09:00:28;;;;;;;12.38;9.63;;;6.10;99.90;;;;;;5074081;28;20785;-63
2021/11/28 09:02:55;;;;;;;10.32;9.27;;;6.10;99.90;;;;;;5075025;28;20231;-63
2021/11/28 09:05:24;;;;;;;8.73;7.82;;;6.10;99.90;;;;;;5074081;28;20219;-64
2021/11/28 09:07:51;;;;;;;10.00;9.00;;;6.10;99.90;;;;;;5074338;28;20223;-64
2021/11/28 09:10:20;;;;;;;11.40;9.20;;;6.20;99.90;;;;;;5074389;28;20227;-64
2021/11/28 09:12:47;;;;;;;11.77;9.80;;;6.10;99.90;;;;;;5072647;28;20542;-63
2021/11/28 09:15:17;;;;;;;11.82;9.32;;;6.10;99.90;;;;;;5071734;28;20256;-63
2021/11/28 09:17:49;;;;;;;9.80;8.77;;;6.20;99.90;;;;;;5073953;28;20223;-64
2021/11/28 09:20:19;;;;;;;10.25;9.15;;;6.20;99.90;;;;;;5073868;28;20220;-63
2021/11/28 09:25:30;;;;;;;11.20;9.10;;;6.30;99.90;;;;;;5062886;28;20299;-64
2021/11/28 09:28:00;;;;;;;10.18;8.38;;;6.30;99.90;;;;;;5073801;28;20252;-64
2021/11/28 09:30:30;;;;;;;10.07;8.30;;;6.30;99.90;;;;;;5073937;28;20239;-63
2021/11/28 09:32:58;;;;;;;11.73;9.60;;;6.20;99.90;;;;;;5074312;28;20224;-64
2021/11/28 09:35:26;;;;;;;11.32;9.20;;;6.30;99.90;;;;;;5065348;28;20221;-64
2021/11/28 09:37:53;;;;;;;13.40;9.60;;;6.30;99.90;;;;;;5071447;28;20224;-63
2021/11/28 09:40:20;;;;;;;10.13;8.52;;;6.40;99.90;;;;;;5073799;28;20244;-64
2021/11/28 09:42:56;;;;;;;10.80;8.30;;;6.50;99.90;;;;;;5073711;28;20227;-63
2021/11/28 09:45:24;;;;;;;14.32;9.20;;;6.50;99.90;;;;;;5073208;28;20314;-64
2021/11/28 09:47:54;;;;;;;8.43;7.53;;;6.50;99.90;;;;;;5073256;28;20228;-63
2021/11/28 09:50:21;;;;;;;11.63;9.18;;;6.50;99.90;;;;;;5072229;28;20227;-63
2021/11/28 09:52:51;;;;;;;10.30;8.43;;;6.60;99.90;;;;;;5072506;28;20754;-63
2021/11/28 09:55:20;;;;;;;24.77;18.08;;;6.60;99.90;;;;;;5072417;28;20239;-63
2021/11/28 09:57:47;;;;;;;16.02;12.48;;;6.70;99.90;;;;;;5073815;28;20281;-64
2021/11/28 10:00:16;;;;;;;13.23;9.85;;;6.80;99.90;;;;;;5072838;28;20645;-64
2021/11/28 10:02:43;;;;;;;11.82;8.13;;;6.80;99.90;;;;;;5073995;28;20231;-64
2021/11/28 10:05:13;;;;;;;10.23;7.95;;;6.80;99.90;;;;;;5073242;28;20220;-63
2021/11/28 10:07:42;;;;;;;10.63;8.52;;;6.90;99.90;;;;;;5072848;28;20228;-64
2021/11/28 10:10:10;;;;;;;10.77;8.80;;;6.80;99.90;;;;;;5073215;28;20270;-64
2021/11/28 10:12:42;;;;;;;12.13;9.20;;;6.80;99.90;;;;;;5073643;28;20220;-64
2021/11/28 10:15:12;;;;;;;9.48;7.82;;;6.90;99.90;;;;;;5073074;28;20305;-63
2021/11/28 10:17:40;;;;;;;10.07;9.07;;;6.90;99.90;;;;;;5073648;28;20239;-63
2021/11/28 10:20:10;;;;;;;10.35;7.90;;;7.00;99.90;;;;;;5073484;28;20232;-63
2021/11/28 10:22:38;;;;;;;9.82;7.95;;;7.00;99.90;;;;;;5073311;28;20992;-64
2021/11/28 10:25:15;;;;;;;8.95;8.07;;;7.10;99.90;;;;;;5073607;28;20297;-64
2021/11/28 10:27:44;;;;;;;14.38;9.65;;;7.10;99.90;;;;;;5072953;28;20216;-64
2021/11/28 10:30:13;;;;;;;12.63;8.02;;;7.20;99.90;;;;;;5073275;28;20224;-64
2021/11/28 10:32:42;;;;;;;9.40;8.50;;;7.30;99.90;;;;;;5072946;28;20220;-64
2021/11/28 10:35:11;;;;;;;15.25;9.70;;;7.30;99.90;;;;;;5072992;28;20228;-64
2021/11/28 10:37:42;;;;;;;13.30;8.98;;;7.40;99.90;;;;;;5072652;28;20289;-64
2021/11/28 10:40:10;;;;;;;12.50;9.13;;;7.40;99.90;;;;;;5073090;28;20232;-63
2021/11/28 10:42:39;;;;;;;12.25;9.15;;;7.40;99.90;;;;;;5072821;28;20216;-63
2021/11/28 10:45:10;;;;;;;13.25;10.00;;;7.40;99.90;;;;;;5072825;28;20634;-64
2021/11/28 10:47:40;;;;;;;18.42;14.15;;;7.40;99.90;;;;;;5052811;28;20227;-64
2021/11/28 10:50:13;;;;;;;17.63;12.63;;;7.50;99.90;;;;;;5058643;28;20232;-64
2021/11/28 10:52:43;;;;;;;19.60;14.15;;;7.50;99.90;;;;;;5072570;28;20220;-64
2021/11/28 10:55:22;;;;;;;14.43;10.32;;;7.50;99.90;;;;;;5072802;28;20566;-63
2021/11/28 10:58:09;;;;;;;17.17;10.90;;;7.60;99.80;;;;;;5072799;28;20753;-64
2021/11/28 11:00:37;;;;;;;9.88;8.95;;;7.60;99.80;;;;;;5072392;28;20362;-64
2021/11/28 11:03:19;;;;;;;12.48;9.60;;;7.70;99.60;;;;;;5073069;28;20224;-63
2021/11/28 11:05:50;;;;;;;13.23;9.77;;;7.70;99.70;;;;;;5072170;28;20678;-63
2021/11/28 11:08:24;;;;;;;15.85;11.55;;;7.70;99.70;;;;;;5072695;28;20232;-64
2021/11/28 11:11:07;;;;;;;11.65;8.93;;;7.70;99.60;;;;;;5072521;28;21274;-64
2021/11/28 11:13:34;;;;;;;13.75;10.88;;;7.70;99.60;;;;;;5069453;28;20220;-64
2021/11/28 11:16:02;;;;;;;23.98;15.18;;;7.70;99.50;;;;;;5051021;28;20322;-64
2021/11/28 11:18:30;;;;;;;16.23;10.80;;;7.70;99.40;;;;;;5061688;28;20251;-63
2021/11/28 11:21:04;;;;;;;13.25;11.85;;;7.70;99.70;;;;;;5070599;28;20246;-63
2021/11/28 11:23:34;;;;;;;11.35;8.45;;;7.70;99.90;;;;;;5070477;28;20223;-64
2021/11/28 11:26:19;;;;;;;11.70;9.82;;;7.70;99.90;;;;;;5071537;28;20231;-63
2021/11/28 11:29:10;;;;;;;13.40;10.30;;;7.70;99.70;;;;;;5072012;28;20227;-64
2021/11/28 11:31:39;;;;;;;10.00;7.47;;;7.70;99.70;;;;;;5072109;28;20678;-63
2021/11/28 11:34:23;;;;;;;9.48;7.85;;;7.70;99.60;;;;;;5072279;28;20244;-63
2021/11/28 11:37:01;;;;;;;10.10;7.95;;;7.70;99.50;;;;;;5071845;28;20309;-64
2021/11/28 11:39:30;;;;;;;14.63;10.40;;;7.70;99.50;;;;;;5072376;28;20715;-64
2021/11/28 11:41:58;;;;;;;21.25;14.60;;;7.70;99.30;;;;;;5072264;28;20304;-63
2021/11/28 11:44:27;;;;;;;12.60;11.05;;;7.70;99.40;;;;;;5072482;28;20232;-64
2021/11/28 11:46:55;;;;;;;8.98;8.02;;;7.70;99.30;;;;;;5072148;28;20235;-63
2021/11/28 11:49:22;;;;;;;9.82;8.80;;;7.80;99.00;;;;;;5072380;28;20678;-64
2021/11/28 11:51:50;;;;;;;18.23;12.95;;;7.80;99.00;;;;;;5052128;28;20615;-64
2021/11/28 11:54:19;;;;;;;15.18;10.07;;;7.80;99.10;;;;;;5052170;28;20552;-63
2021/11/28 11:56:49;;;;;;;12.98;10.40;;;7.80;99.20;;;;;;5063096;28;20239;-64
2021/11/28 11:59:26;;;;;;;14.63;7.75;;;7.80;99.20;;;;;;5072150;28;20586;-64
2021/11/28 12:02:03;;;;;;;17.02;12.57;;;7.80;99.10;;;;;;5071255;28;20230;-64
2021/11/28 12:04:42;;;;;;;20.13;10.15;;;7.80;99.00;;;;;;5072282;28;20224;-64
2021/11/28 12:07:09;;;;;;;11.65;8.52;;;7.90;98.90;;;;;;5072086;28;21259;-64
2021/11/28 12:09:36;;;;;;;19.10;12.07;;;7.90;98.80;;;;;;5072110;28;20231;-64
2021/11/28 12:12:08;;;;;;;16.83;10.07;;;7.90;98.70;;;;;;5069869;28;20244;-64
2021/11/28 12:14:36;;;;;;;14.48;9.45;;;8.00;98.70;;;;;;5061901;28;20286;-64
2021/11/28 12:17:36;;;;;;;16.63;11.57;;;8.00;98.60;;;;;;5071302;28;20228;-64
2021/11/28 12:20:04;;;;;;;9.68;7.35;;;8.10;98.60;;;;;;5071484;28;20342;-63
2021/11/28 12:22:48;;;;;;;11.20;8.48;;;8.00;98.50;;;;;;5069094;28;20220;-63
2021/11/28 12:25:37;;;;;;;9.48;7.43;;;8.10;98.50;;;;;;5071534;28;20216;-64
2021/11/28 12:28:27;;;;;;;17.10;11.48;;;8.10;98.30;;;;;;5071096;28;20307;-64
2021/11/28 12:30:55;;;;;;;18.10;13.88;;;8.20;98.50;;;;;;5071522;28;20678;-64
2021/11/28 12:34:01;;;;;;;16.40;12.50;;;8.20;98.70;;;;;;5075341;28;20216;-63
2021/11/28 12:36:41;;;;;;;14.80;10.95;;;8.20;98.30;;;;;;5075712;28;20324;-63
2021/11/28 12:39:10;;;;;;;11.35;10.15;;;8.20;98.30;;;;;;5063233;28;20281;-64
2021/11/28 12:42:03;;;;;;;15.70;12.35;;;8.20;98.20;;;;;;5074894;28;20243;-64
2021/11/28 12:44:33;;;;;;;21.75;14.73;;;8.20;98.00;;;;;;5074748;28;20224;-63
2021/11/28 12:47:01;;;;;;;24.20;17.73;;;8.20;98.10;;;;;;5075202;28;20228;-63
2021/11/28 12:49:30;;;;;;;16.52;9.88;;;8.20;98.00;;;;;;5074759;28;20228;-63
2021/11/28 12:52:18;;;;;;;11.07;9.43;;;8.20;98.00;;;;;;5074235;28;20223;-63
2021/11/28 12:55:12;;;;;;;16.05;11.55;;;8.20;97.90;;;;;;5070864;28;20933;-64
2021/11/28 12:57:40;;;;;;;14.90;12.13;;;8.20;98.10;;;;;;5074551;28;20230;-63